Time;durP1;ratioP1;P1;durP2;ratioP2;P2;SDS_P1;SDS_P2;PMS_P1;PMS_P2;Temp;Humidity;BMP_temperature;BMP_pressure;BME280_temperature;BME280_humidity;BME280_pressure;Samples;Min_cycle;Max_cycle;Signal;HPM_P1;HPM_P2
2023/10/08 00:01:13;;;;;;;6.03;2.10;;;26.30;45.80;;;;;;4936082;29;20465;-74
2023/10/08 00:03:40;;;;;;;4.65;2.05;;;26.40;45.80;;;;;;4935402;29;20123;-74
2023/10/08 00:06:06;;;;;;;2.30;1.20;;;26.30;45.80;;;;;;4935780;29;20396;-74
2023/10/08 00:08:33;;;;;;;4.18;1.70;;;26.40;45.80;;;;;;4935442;29;20051;-75
2023/10/08 00:11:06;;;;;;;7.20;2.00;;;26.30;45.80;;;;;;4934589;29;20039;-74
2023/10/08 00:13:39;;;;;;;4.88;1.92;;;26.30;45.90;;;;;;4935222;29;20035;-74
2023/10/08 00:16:16;;;;;;;7.97;2.05;;;26.20;45.90;;;;;;4935592;29;20047;-74
2023/10/08 00:18:50;;;;;;;2.53;1.42;;;26.20;45.90;;;;;;4934985;29;20044;-74
2023/10/08 00:21:27;;;;;;;2.75;1.63;;;26.20;45.90;;;;;;4933847;29;20054;-74
2023/10/08 00:23:59;;;;;;;3.40;1.92;;;26.20;45.90;;;;;;4935589;29;20058;-74
2023/10/08 00:26:34;;;;;;;4.13;1.98;;;26.10;46.00;;;;;;4935398;29;20039;-74
2023/10/08 00:31:56;;;;;;;2.30;1.40;;;26.10;46.10;;;;;;4911657;29;20130;-74
2023/10/08 00:34:27;;;;;;;2.58;1.20;;;26.10;46.20;;;;;;4906200;29;20107;-74
2023/10/08 00:36:53;;;;;;;1.92;1.60;;;26.30;46.30;;;;;;4885190;29;20558;-74
2023/10/08 00:39:33;;;;;;;4.53;1.90;;;26.10;46.30;;;;;;4913850;29;20055;-74
2023/10/08 00:41:59;;;;;;;2.75;1.60;;;26.20;46.30;;;;;;4913549;29;20048;-74
2023/10/08 00:44:35;;;;;;;1.95;1.20;;;26.20;46.30;;;;;;4913698;29;20036;-74
2023/10/08 00:47:04;;;;;;;3.15;1.60;;;26.40;46.40;;;;;;4874331;29;20457;-74
2023/10/08 00:54:47;;;;;;;1.05;0.95;;;26.30;46.50;;;;;;4879511;29;20032;-74
2023/10/08 00:57:20;;;;;;;1.33;1.13;;;26.20;46.50;;;;;;4882114;29;20881;-74
2023/10/08 00:59:52;;;;;;;1.92;1.00;;;26.30;46.50;;;;;;4912736;29;20055;-74
2023/10/08 01:02:30;;;;;;;;;;;26.20;46.50;;;;;;4896442;29;20071;-73
2023/10/08 01:04:56;;;;;;;1.70;1.30;;;26.20;46.50;;;;;;4874082;29;19915;-74
2023/10/08 01:07:23;;;;;;;2.17;1.10;;;26.30;46.60;;;;;;4898368;29;20070;-74
2023/10/08 01:09:51;;;;;;;1.65;1.15;;;26.30;46.60;;;;;;4916796;29;20044;-74
2023/10/08 01:12:33;;;;;;;2.67;1.63;;;26.30;46.60;;;;;;4935037;29;20040;-74
2023/10/08 01:15:18;;;;;;;2.13;1.20;;;26.20;46.60;;;;;;4917993;29;20130;-73
2023/10/08 01:23:16;;;;;;;3.65;2.17;;;26.20;46.70;;;;;;4910764;29;20115;-74
2023/10/08 01:25:50;;;;;;;2.67;1.70;;;26.20;46.80;;;;;;4893947;29;20096;-74
2023/10/08 01:28:25;;;;;;;4.88;1.95;;;26.10;46.90;;;;;;4908494;29;20039;-74
2023/10/08 01:30:57;;;;;;;4.50;1.75;;;26.20;46.90;;;;;;4912559;29;20119;-74
2023/10/08 01:33:27;;;;;;;6.13;2.63;;;26.20;46.90;;;;;;4897617;29;20139;-74
2023/10/08 01:35:54;;;;;;;3.40;1.63;;;26.20;46.90;;;;;;4853253;29;20446;-74
2023/10/08 01:38:23;;;;;;;3.80;1.60;;;26.20;47.00;;;;;;4885160;29;20100;-74
2023/10/08 01:40:50;;;;;;;4.75;2.28;;;26.10;47.00;;;;;;4893701;29;20485;-75
2023/10/08 01:43:17;;;;;;;3.97;1.48;;;26.40;47.00;;;;;;4878565;29;20045;-74
2023/10/08 01:45:48;;;;;;;2.65;1.67;;;26.20;47.00;;;;;;4878425;29;20056;-73
2023/10/08 01:48:25;;;;;;;5.07;1.80;;;26.30;47.00;;;;;;4893651;29;20041;-74
2023/10/08 01:50:55;;;;;;;2.65;1.95;;;26.20;47.00;;;;;;4893446;29;20466;-74
2023/10/08 01:53:21;;;;;;;5.15;1.73;;;26.30;47.00;;;;;;4894011;29;20258;-75
2023/10/08 01:55:52;;;;;;;2.22;1.55;;;26.20;47.00;;;;;;4893857;29;20048;-74
2023/10/08 01:58:18;;;;;;;2.03;1.80;;;26.10;47.00;;;;;;4859069;29;20042;-74
2023/10/08 02:00:45;;;;;;;1.45;1.35;;;26.20;47.00;;;;;;4873693;29;20043;-74
2023/10/08 02:03:15;;;;;;;3.47;1.73;;;26.10;47.00;;;;;;4859489;29;20057;-74
2023/10/08 02:05:44;;;;;;;3.72;1.70;;;26.20;47.00;;;;;;4843821;29;20041;-74
2023/10/08 02:08:12;;;;;;;6.55;1.77;;;26.30;47.00;;;;;;4874749;29;20526;-74
2023/10/08 02:10:40;;;;;;;2.67;1.70;;;26.10;47.10;;;;;;4843989;29;20045;-74
2023/10/08 02:13:08;;;;;;;1.67;1.25;;;26.10;47.10;;;;;;4877932;29;20108;-75
2023/10/08 02:15:36;;;;;;;0.82;0.77;;;26.00;47.10;;;;;;4863377;29;20051;-74
2023/10/08 02:18:03;;;;;;;0.85;0.80;;;26.20;47.20;;;;;;4847036;29;20578;-75
2023/10/08 02:20:30;;;;;;;0.95;0.93;;;26.00;47.30;;;;;;4878362;29;20072;-74
2023/10/08 02:22:56;;;;;;;0.63;0.63;;;26.10;47.30;;;;;;4878982;29;20044;-74
2023/10/08 02:25:22;;;;;;;0.70;0.70;;;26.20;47.40;;;;;;4895697;29;20119;-75
2023/10/08 02:27:49;;;;;;;2.00;1.40;;;26.10;47.40;;;;;;4899706;29;20037;-74
2023/10/08 02:30:17;;;;;;;1.55;1.35;;;26.10;47.50;;;;;;4899402;29;20068;-74
2023/10/08 02:32:44;;;;;;;2.28;1.67;;;26.10;47.50;;;;;;4922335;29;20067;-74
2023/10/08 02:35:13;;;;;;;1.23;0.82;;;26.00;47.50;;;;;;4937366;29;20043;-74
2023/10/08 02:37:40;;;;;;;0.70;0.70;;;26.30;47.50;;;;;;4935945;29;20477;-74
2023/10/08 02:40:25;;;;;;;1.13;0.85;;;26.20;47.50;;;;;;4937720;29;20044;-74
2023/10/08 02:42:58;;;;;;;0.50;0.50;;;26.20;47.60;;;;;;4936039;29;20042;-74
2023/10/08 02:45:27;;;;;;;0.60;0.60;;;26.10;47.60;;;;;;4935865;29;20027;-74
2023/10/08 02:47:55;;;;;;;0.55;0.55;;;26.10;47.50;;;;;;4936604;29;20424;-73
2023/10/08 02:50:22;;;;;;;0.75;0.73;;;26.20;47.60;;;;;;4937170;29;20098;-74
2023/10/08 02:52:51;;;;;;;2.95;0.98;;;26.20;47.50;;;;;;4937177;29;20747;-74
2023/10/08 02:55:35;;;;;;;0.63;0.63;;;26.10;47.60;;;;;;4936407;29;20039;-75
2023/10/08 02:58:04;;;;;;;4.95;1.38;;;26.00;47.70;;;;;;4921963;29;20055;-74
2023/10/08 03:00:33;;;;;;;1.10;0.75;;;26.10;47.70;;;;;;4937327;29;20074;-74
2023/10/08 03:03:01;;;;;;;4.75;1.67;;;26.00;47.60;;;;;;4935787;29;20051;-74
2023/10/08 03:05:35;;;;;;;4.57;2.10;;;26.10;47.70;;;;;;4935648;29;20031;-74
2023/10/08 03:08:10;;;;;;;2.38;1.77;;;26.00;47.70;;;;;;4936738;29;20066;-74
2023/10/08 03:10:38;;;;;;;1.65;1.25;;;26.00;47.70;;;;;;4935870;29;20547;-74
2023/10/08 03:13:05;;;;;;;3.13;1.65;;;26.00;47.70;;;;;;4937135;29;20067;-74
2023/10/08 03:15:46;;;;;;;1.17;1.08;;;26.00;47.80;;;;;;4936879;29;20061;-74
2023/10/08 03:18:15;;;;;;;0.75;0.75;;;26.00;47.80;;;;;;4934898;29;20039;-74
2023/10/08 03:20:46;;;;;;;0.85;0.85;;;26.10;47.80;;;;;;4935460;29;20418;-74
2023/10/08 03:23:23;;;;;;;0.70;0.70;;;26.10;47.90;;;;;;4934783;29;20067;-74
2023/10/08 03:28:45;;;;;;;0.70;0.70;;;26.00;48.00;;;;;;4908068;29;20091;-74
2023/10/08 03:31:16;;;;;;;0.50;0.50;;;26.10;48.00;;;;;;4893263;29;20076;-74
2023/10/08 03:33:48;;;;;;;0.98;0.70;;;26.10;48.00;;;;;;4880275;29;20064;-74
2023/10/08 03:36:21;;;;;;;0.57;0.57;;;26.30;48.10;;;;;;4885648;29;20131;-75
2023/10/08 03:38:50;;;;;;;0.95;0.85;;;26.00;48.10;;;;;;4898415;29;20520;-74
2023/10/08 03:41:39;;;;;;;0.90;0.90;;;26.10;48.10;;;;;;4914953;29;20036;-74
2023/10/08 03:44:12;;;;;;;3.15;2.00;;;26.10;48.10;;;;;;4898665;29;20043;-73
2023/10/08 03:46:46;;;;;;;7.13;2.03;;;26.00;48.10;;;;;;4892538;29;20065;-74
2023/10/08 03:51:52;;;;;;;4.57;2.20;;;26.20;48.10;;;;;;4902487;29;20040;-74
2023/10/08 03:54:19;;;;;;;3.15;1.55;;;26.10;48.10;;;;;;4896708;29;20048;-75
2023/10/08 03:56:46;;;;;;;4.10;2.40;;;26.00;48.10;;;;;;4889855;29;20106;-74
2023/10/08 03:59:40;;;;;;;3.88;2.20;;;26.10;48.10;;;;;;4914370;29;20066;-75
2023/10/08 04:02:23;;;;;;;2.88;1.73;;;26.10;48.10;;;;;;4898763;29;20044;-74
2023/10/08 04:04:56;;;;;;;5.53;2.08;;;26.10;48.10;;;;;;4898222;29;20077;-74
2023/10/08 04:12:42;;;;;;;5.35;2.58;;;26.00;48.20;;;;;;4895433;29;20044;-74
2023/10/08 04:15:08;;;;;;;7.18;2.78;;;26.00;48.20;;;;;;4893319;29;20490;-74
2023/10/08 04:17:43;;;;;;;2.40;1.60;;;26.00;48.30;;;;;;4876547;29;20081;-74
2023/10/08 04:22:56;;;;;;;3.13;1.92;;;26.10;48.30;;;;;;4893624;29;20032;-74
2023/10/08 04:25:22;;;;;;;3.55;1.17;;;26.10;48.30;;;;;;4895415;29;20181;-74
2023/10/08 04:27:49;;;;;;;3.00;1.63;;;26.00;48.30;;;;;;4895052;29;20135;-74
2023/10/08 04:30:16;;;;;;;3.90;1.77;;;26.00;48.30;;;;;;4884637;29;20157;-73
2023/10/08 04:32:42;;;;;;;2.60;1.65;;;26.00;48.30;;;;;;4887076;29;20545;-74
2023/10/08 04:35:14;;;;;;;0.73;0.73;;;26.10;48.40;;;;;;4859947;29;20093;-75
2023/10/08 04:37:41;;;;;;;0.65;0.60;;;26.00;48.40;;;;;;4882538;29;20044;-74
2023/10/08 04:40:15;;;;;;;0.50;0.50;;;26.00;48.40;;;;;;4878156;29;20408;-74
2023/10/08 04:42:45;;;;;;;1.67;1.17;;;26.20;48.40;;;;;;4866007;29;20458;-74
2023/10/08 04:45:14;;;;;;;0.52;0.52;;;26.10;48.40;;;;;;4877338;29;20041;-74
2023/10/08 04:47:42;;;;;;;2.45;0.98;;;26.10;48.50;;;;;;4902373;29;20465;-74
2023/10/08 04:50:15;;;;;;;0.65;0.65;;;26.10;48.50;;;;;;4929370;29;20039;-74
2023/10/08 04:52:58;;;;;;;0.55;0.45;;;26.00;48.60;;;;;;4934538;29;20110;-74
2023/10/08 04:55:29;;;;;;;0.80;0.57;;;26.00;48.60;;;;;;4935250;29;20059;-74
2023/10/08 04:57:55;;;;;;;0.55;0.55;;;26.10;48.60;;;;;;4933706;29;20137;-74
2023/10/08 05:00:41;;;;;;;3.05;1.73;;;26.00;48.60;;;;;;4933217;29;20478;-74
2023/10/08 05:03:20;;;;;;;3.33;1.70;;;25.90;48.20;;;;;;4934488;29;20479;-74
2023/10/08 05:06:08;;;;;;;2.50;1.58;;;25.90;48.20;;;;;;4935111;29;20043;-74
2023/10/08 05:11:36;;;;;;;0.40;0.40;;;26.00;48.80;;;;;;4934467;29;20032;-74
2023/10/08 05:14:06;;;;;;;1.48;1.08;;;26.00;48.80;;;;;;4914531;29;20044;-74
2023/10/08 05:16:44;;;;;;;0.50;0.50;;;26.00;48.80;;;;;;4927174;29;20047;-74
2023/10/08 05:22:17;;;;;;;0.47;0.40;;;26.00;48.90;;;;;;4934233;29;20024;-74
2023/10/08 05:25:08;;;;;;;0.80;0.70;;;26.00;48.90;;;;;;4933110;29;20051;-74
2023/10/08 05:30:28;;;;;;;0.47;0.47;;;26.00;49.00;;;;;;4933426;29;20036;-74
2023/10/08 05:38:38;;;;;;;1.40;1.05;;;26.10;49.00;;;;;;4932573;29;20415;-74
2023/10/08 05:41:05;;;;;;;0.40;0.40;;;26.10;49.10;;;;;;4933814;29;20118;-74
2023/10/08 05:49:03;;;;;;;0.73;0.55;;;25.90;48.60;;;;;;4933614;29;20034;-74
2023/10/08 05:51:44;;;;;;;0.40;0.40;;;26.10;49.10;;;;;;4929794;29;20039;-74
2023/10/08 06:00:17;;;;;;;0.55;0.50;;;26.10;50.20;;;;;;4933169;29;20484;-72
2023/10/08 06:07:56;;;;;;;0.93;0.93;;;26.00;50.30;;;;;;4933246;29;20031;-72
2023/10/08 06:18:25;;;;;;;0.40;0.40;;;26.00;50.50;;;;;;4933169;29;20065;-71
2023/10/08 06:20:58;;;;;;;0.50;0.50;;;25.90;50.10;;;;;;4938055;29;20038;-71
2023/10/08 06:23:25;;;;;;;1.08;0.98;;;26.10;51.20;;;;;;4936523;29;20027;-74
2023/10/08 06:26:13;;;;;;;0.75;0.75;;;26.00;51.70;;;;;;4933069;29;20043;-74
2023/10/08 06:28:42;;;;;;;1.48;0.80;;;26.10;52.10;;;;;;4938347;29;20063;-74
2023/10/08 06:31:11;;;;;;;4.55;0.75;;;26.20;51.60;;;;;;4932723;29;20081;-74
2023/10/08 06:33:40;;;;;;;13.27;2.75;;;26.20;51.20;;;;;;4933191;29;20071;-77
2023/10/08 06:38:40;;;;;;;1.83;1.33;;;26.30;50.40;;;;;;4932823;29;20055;-74
2023/10/08 06:41:18;;;;;;;1.58;1.02;;;26.30;49.60;;;;;;4932900;29;20338;-73
2023/10/08 06:43:49;;;;;;;3.30;1.67;;;26.20;49.10;;;;;;4913050;29;20404;-73
2023/10/08 06:46:21;;;;;;;2.00;1.17;;;26.20;48.60;;;;;;4923645;29;20040;-73
2023/10/08 06:48:49;;;;;;;1.60;1.00;;;26.30;48.30;;;;;;4931846;29;20058;-74
2023/10/08 06:51:17;;;;;;;2.78;1.17;;;26.30;48.00;;;;;;4931787;29;20036;-72
2023/10/08 06:53:45;;;;;;;2.72;1.65;;;26.30;47.70;;;;;;4929884;29;20042;-73
2023/10/08 06:56:12;;;;;;;1.63;1.23;;;26.30;47.60;;;;;;4933231;29;20118;-75
2023/10/08 06:58:42;;;;;;;1.20;1.10;;;26.30;48.10;;;;;;4934995;29;20047;-75
2023/10/08 07:01:13;;;;;;;1.92;1.73;;;26.40;48.00;;;;;;4936571;29;20028;-73
2023/10/08 07:03:39;;;;;;;4.97;1.60;;;26.50;48.10;;;;;;4936204;29;20138;-74
2023/10/08 07:06:16;;;;;;;5.68;2.00;;;26.60;47.50;;;;;;4936855;29;20032;-74
2023/10/08 07:08:46;;;;;;;1.85;1.50;;;26.70;47.40;;;;;;4936199;29;20052;-71
2023/10/08 07:11:13;;;;;;;2.15;1.55;;;26.70;47.20;;;;;;4936284;29;20106;-74
2023/10/08 07:13:42;;;;;;;4.70;1.60;;;26.80;46.60;;;;;;4934922;29;20052;-73
2023/10/08 07:16:11;;;;;;;1.45;0.98;;;26.80;46.00;;;;;;4935732;29;20097;-74
2023/10/08 07:18:41;;;;;;;1.73;1.30;;;26.80;45.70;;;;;;4936124;29;20039;-70
2023/10/08 07:21:13;;;;;;;4.30;1.90;;;26.90;45.50;;;;;;4935553;29;20481;-74
2023/10/08 07:23:59;;;;;;;2.83;1.17;;;26.70;45.40;;;;;;4935609;29;20040;-72
2023/10/08 07:26:26;;;;;;;1.10;0.90;;;26.70;45.00;;;;;;4936439;29;20032;-72
2023/10/08 07:28:53;;;;;;;2.67;1.00;;;26.80;45.20;;;;;;4936143;29;20036;-73
2023/10/08 07:31:23;;;;;;;3.28;1.45;;;26.80;44.60;;;;;;4935917;29;20065;-69
2023/10/08 07:33:56;;;;;;;2.40;0.90;;;26.70;45.20;;;;;;4923581;29;20039;-72
2023/10/08 07:36:23;;;;;;;0.80;0.70;;;26.70;45.00;;;;;;4935900;29;20036;-72
2023/10/08 07:38:52;;;;;;;3.40;1.17;;;26.60;45.00;;;;;;4935885;29;20028;-74
2023/10/08 07:41:20;;;;;;;1.60;1.40;;;26.60;45.80;;;;;;4935347;29;20047;-72
2023/10/08 07:43:55;;;;;;;1.73;1.35;;;26.70;45.80;;;;;;4920105;29;20160;-77
2023/10/08 07:46:28;;;;;;;2.33;1.40;;;26.60;45.80;;;;;;4936059;29;20039;-72
2023/10/08 07:48:55;;;;;;;1.08;0.93;;;26.60;45.80;;;;;;4934635;29;20158;-73
2023/10/08 07:51:24;;;;;;;1.08;0.82;;;26.60;45.20;;;;;;4935014;29;20512;-73
2023/10/08 07:53:55;;;;;;;2.38;1.35;;;26.60;46.00;;;;;;4935471;29;20111;-75
2023/10/08 07:56:25;;;;;;;1.58;0.93;;;26.60;46.30;;;;;;4935476;29;20083;-75
2023/10/08 07:58:55;;;;;;;0.50;0.50;;;26.60;46.50;;;;;;4934499;29;20044;-74
2023/10/08 08:01:24;;;;;;;0.95;0.88;;;26.50;46.40;;;;;;4931179;29;20043;-70
2023/10/08 08:03:51;;;;;;;1.40;1.05;;;26.50;46.00;;;;;;4933587;29;20055;-70
2023/10/08 08:06:17;;;;;;;1.75;0.90;;;26.50;46.20;;;;;;4930595;29;20114;-70
2023/10/08 08:08:44;;;;;;;0.73;0.60;;;26.50;46.20;;;;;;4932948;29;20097;-71
2023/10/08 08:11:17;;;;;;;0.40;0.40;;;26.60;46.10;;;;;;4933106;29;20040;-73
2023/10/08 08:13:46;;;;;;;0.80;0.75;;;26.40;46.00;;;;;;4932603;29;20036;-73
2023/10/08 08:16:20;;;;;;;0.55;0.55;;;26.50;46.00;;;;;;4932997;29;20443;-70
2023/10/08 08:18:49;;;;;;;0.80;0.80;;;26.60;45.90;;;;;;4932475;29;20043;-74
2023/10/08 08:21:16;;;;;;;1.52;1.20;;;26.50;45.80;;;;;;4933030;29;20032;-75
2023/10/08 08:23:47;;;;;;;2.03;0.93;;;26.40;45.80;;;;;;4932822;29;20534;-74
2023/10/08 08:26:27;;;;;;;1.48;1.05;;;26.60;45.80;;;;;;4933413;29;20190;-73
2023/10/08 08:29:01;;;;;;;1.05;0.85;;;26.60;45.70;;;;;;4930009;29;20184;-76
2023/10/08 08:31:31;;;;;;;0.52;0.40;;;26.50;45.70;;;;;;4931677;29;20036;-74
2023/10/08 08:34:19;;;;;;;1.38;0.73;;;26.60;45.60;;;;;;4932586;29;20069;-73
2023/10/08 08:36:49;;;;;;;2.10;0.68;;;26.60;45.50;;;;;;4932367;29;20067;-73
2023/10/08 08:39:36;;;;;;;0.50;0.50;;;26.60;45.60;;;;;;4930703;29;20078;-74
2023/10/08 08:42:06;;;;;;;1.13;0.70;;;26.70;45.60;;;;;;4923202;29;20028;-74
2023/10/08 08:44:45;;;;;;;0.50;0.50;;;26.60;45.60;;;;;;4934841;29;20027;-71
2023/10/08 08:47:17;;;;;;;1.10;0.75;;;26.60;45.60;;;;;;4930277;29;20031;-71
2023/10/08 08:49:45;;;;;;;0.85;0.75;;;26.70;45.60;;;;;;4932239;29;20809;-73
2023/10/08 08:52:12;;;;;;;0.70;0.70;;;26.60;45.70;;;;;;4932398;29;20734;-73
2023/10/08 08:54:39;;;;;;;0.80;0.77;;;26.50;45.70;;;;;;4932337;29;20349;-74
2023/10/08 08:57:13;;;;;;;0.80;0.80;;;26.70;45.70;;;;;;4933872;29;20044;-73
2023/10/08 08:59:55;;;;;;;0.93;0.77;;;26.50;45.70;;;;;;4934576;29;20055;-73
2023/10/08 09:02:22;;;;;;;0.50;0.50;;;26.70;45.70;;;;;;4934502;29;20028;-74
2023/10/08 09:04:49;;;;;;;0.95;0.70;;;26.60;46.40;;;;;;4934800;29;20046;-72
2023/10/08 09:07:21;;;;;;;6.57;1.55;;;26.60;47.20;;;;;;4934135;29;20028;-75
2023/10/08 09:09:49;;;;;;;2.23;1.20;;;26.50;48.30;;;;;;4919550;29;20110;-75
2023/10/08 09:12:17;;;;;;;5.35;1.48;;;26.60;48.70;;;;;;4934368;29;20039;-75
2023/10/08 09:14:44;;;;;;;2.47;1.17;;;26.60;49.80;;;;;;4934449;29;20039;-73
2023/10/08 09:17:11;;;;;;;1.38;0.90;;;26.50;50.00;;;;;;4933381;29;20032;-73
2023/10/08 09:19:38;;;;;;;3.22;1.15;;;26.60;49.20;;;;;;4933271;29;20036;-73
2023/10/08 09:22:11;;;;;;;1.05;0.70;;;26.60;48.70;;;;;;4933623;29;20122;-73
2023/10/08 09:24:39;;;;;;;2.03;0.90;;;26.60;48.40;;;;;;4934254;29;20035;-72
2023/10/08 09:27:15;;;;;;;3.83;1.15;;;26.60;48.10;;;;;;4933680;29;20456;-72
2023/10/08 09:29:42;;;;;;;0.73;0.73;;;26.60;48.00;;;;;;4933853;29;20070;-73
2023/10/08 09:32:11;;;;;;;1.65;1.00;;;26.60;47.90;;;;;;4932196;29;20059;-72
2023/10/08 09:34:37;;;;;;;0.98;0.90;;;26.60;47.70;;;;;;4933946;29;20440;-72
2023/10/08 09:37:03;;;;;;;1.92;0.77;;;26.60;47.90;;;;;;4932152;29;20043;-72
2023/10/08 09:39:34;;;;;;;1.67;1.00;;;26.50;47.90;;;;;;4933374;29;20042;-72
2023/10/08 09:42:11;;;;;;;1.02;0.70;;;26.60;47.80;;;;;;4933937;29;20036;-73
2023/10/08 09:44:37;;;;;;;0.70;0.70;;;26.60;47.80;;;;;;4934104;29;20427;-72
2023/10/08 09:47:05;;;;;;;1.25;0.88;;;26.60;47.70;;;;;;4933313;29;20370;-73
2023/10/08 09:49:33;;;;;;;1.23;0.93;;;26.50;47.50;;;;;;4933681;29;20040;-72
2023/10/08 09:52:05;;;;;;;1.25;1.15;;;26.50;47.00;;;;;;4933800;29;20046;-75
2023/10/08 09:54:42;;;;;;;1.92;1.08;;;26.50;47.60;;;;;;4933928;29;20039;-72
2023/10/08 09:57:08;;;;;;;1.98;0.98;;;26.50;47.70;;;;;;4933498;29;20039;-70
2023/10/08 09:59:35;;;;;;;1.23;1.08;;;26.40;47.50;;;;;;4933327;29;20080;-76
2023/10/08 10:02:02;;;;;;;4.10;0.95;;;26.50;47.80;;;;;;4933332;29;20056;-73
2023/10/08 10:04:34;;;;;;;2.83;0.85;;;26.70;48.10;;;;;;4924328;29;20377;-74
2023/10/08 10:07:12;;;;;;;16.08;2.08;;;26.70;47.50;;;;;;4932803;29;20055;-73
2023/10/08 10:09:42;;;;;;;3.35;1.10;;;26.60;48.40;;;;;;4933629;29;20139;-74
2023/10/08 10:12:11;;;;;;;1.65;0.80;;;26.70;49.00;;;;;;4933535;29;20098;-72
2023/10/08 10:14:46;;;;;;;1.23;0.88;;;26.70;48.30;;;;;;4933828;29;20043;-73
2023/10/08 10:17:20;;;;;;;1.67;1.13;;;26.90;47.10;;;;;;4931860;29;20079;-73
2023/10/08 10:19:59;;;;;;;1.65;1.05;;;26.70;45.80;;;;;;4931592;29;20138;-72
2023/10/08 10:22:29;;;;;;;1.58;1.15;;;26.70;44.60;;;;;;4931216;29;20043;-72
2023/10/08 10:25:03;;;;;;;1.20;1.10;;;26.80;44.60;;;;;;4933699;29;20035;-72
2023/10/08 10:27:30;;;;;;;2.20;1.08;;;26.70;44.60;;;;;;4933334;29;20071;-73
2023/10/08 10:30:08;;;;;;;1.80;1.10;;;26.70;44.30;;;;;;4933629;29;20591;-72
2023/10/08 10:32:37;;;;;;;4.50;1.15;;;26.80;46.30;;;;;;4932726;29;20480;-71
2023/10/08 10:35:05;;;;;;;1.55;0.80;;;27.00;48.10;;;;;;4934870;29;20038;-73
2023/10/08 10:37:42;;;;;;;2.53;0.88;;;26.90;48.30;;;;;;4936772;29;20042;-72
2023/10/08 10:40:12;;;;;;;1.38;1.00;;;27.00;46.30;;;;;;4933827;29;20154;-71
2023/10/08 10:42:53;;;;;;;1.35;1.23;;;27.00;48.80;;;;;;4935325;29;20468;-72
2023/10/08 10:45:43;;;;;;;2.47;1.00;;;27.10;48.90;;;;;;4936074;29;20032;-72
2023/10/08 10:53:56;;;;;;;3.25;0.90;;;27.00;45.50;;;;;;4899871;29;20825;-71
2023/10/08 10:56:30;;;;;;;4.05;1.60;;;27.00;45.40;;;;;;4895805;29;20132;-71
2023/10/08 10:59:00;;;;;;;3.70;1.30;;;27.00;45.20;;;;;;4896532;29;20049;-71
2023/10/08 11:01:29;;;;;;;2.10;1.02;;;27.00;44.90;;;;;;4896835;29;20124;-71
2023/10/08 11:04:00;;;;;;;2.92;0.95;;;26.90;44.10;;;;;;4901763;29;20078;-71
2023/10/08 11:06:27;;;;;;;3.45;0.95;;;27.00;44.70;;;;;;4908019;29;20532;-71
2023/10/08 11:08:53;;;;;;;3.25;1.15;;;26.80;44.10;;;;;;4913767;29;20100;-71
2023/10/08 11:11:29;;;;;;;1.05;0.95;;;26.90;44.00;;;;;;4900332;29;20044;-70
2023/10/08 11:14:03;;;;;;;2.72;1.10;;;26.80;44.10;;;;;;4905026;29;20055;-71
2023/10/08 11:16:31;;;;;;;3.47;1.00;;;26.80;44.20;;;;;;4912400;29;20040;-72
2023/10/08 11:19:01;;;;;;;2.88;1.33;;;26.80;44.40;;;;;;4907079;29;20044;-70
2023/10/08 11:21:31;;;;;;;2.63;0.77;;;26.80;44.70;;;;;;4907103;29;20063;-72
2023/10/08 11:23:59;;;;;;;2.80;1.65;;;26.80;44.90;;;;;;4907246;29;20095;-71
2023/10/08 11:26:32;;;;;;;1.50;1.13;;;26.90;45.20;;;;;;4915316;29;20040;-72
2023/10/08 11:29:00;;;;;;;1.90;1.10;;;26.80;45.60;;;;;;4902727;29;20039;-71
2023/10/08 11:31:28;;;;;;;1.90;1.25;;;26.70;45.60;;;;;;4927725;29;20048;-72
2023/10/08 11:34:08;;;;;;;1.15;1.05;;;26.60;45.80;;;;;;4935467;29;20032;-72
2023/10/08 11:36:43;;;;;;;1.88;0.88;;;26.80;45.70;;;;;;4933957;29;20083;-74
2023/10/08 11:39:13;;;;;;;0.82;0.80;;;26.60;45.80;;;;;;4933167;29;20456;-73
2023/10/08 11:41:50;;;;;;;1.58;1.00;;;26.60;45.80;;;;;;4934576;29;20439;-71
2023/10/08 11:44:19;;;;;;;1.88;1.10;;;26.70;46.00;;;;;;4934482;29;20039;-73
2023/10/08 11:46:51;;;;;;;3.63;1.20;;;26.70;46.00;;;;;;4934400;29;20067;-72
2023/10/08 11:49:18;;;;;;;1.00;0.90;;;26.50;46.00;;;;;;4935733;29;20111;-73
2023/10/08 11:51:48;;;;;;;1.85;0.80;;;26.70;46.00;;;;;;4935880;29;20047;-72
2023/10/08 11:54:14;;;;;;;1.70;0.90;;;26.70;46.30;;;;;;4936424;29;20523;-74
2023/10/08 11:56:41;;;;;;;1.45;0.90;;;26.70;46.90;;;;;;4935637;29;20130;-72
2023/10/08 11:59:11;;;;;;;1.10;0.77;;;26.60;47.00;;;;;;4935210;29;20553;-72
2023/10/08 12:01:41;;;;;;;2.25;1.00;;;26.70;46.90;;;;;;4934285;29;20063;-73
2023/10/08 12:04:16;;;;;;;1.35;0.95;;;26.60;46.90;;;;;;4936336;29;20032;-73
2023/10/08 12:06:52;;;;;;;1.23;1.00;;;26.70;46.80;;;;;;4936036;29;20032;-72
2023/10/08 12:09:21;;;;;;;3.03;0.80;;;26.60;46.80;;;;;;4936071;29;20511;-72
2023/10/08 12:11:48;;;;;;;1.85;0.98;;;26.70;46.80;;;;;;4935691;29;20094;-69
2023/10/08 12:14:14;;;;;;;0.95;0.85;;;26.60;47.10;;;;;;4934932;29;20039;-69
2023/10/08 12:16:42;;;;;;;1.52;1.42;;;26.60;47.50;;;;;;4936008;29;20063;-69
2023/10/08 12:19:17;;;;;;;0.98;0.80;;;26.60;47.80;;;;;;4936001;29;20036;-70
2023/10/08 12:21:47;;;;;;;1.65;1.00;;;26.50;48.00;;;;;;4935890;29;20042;-67
2023/10/08 12:24:14;;;;;;;1.45;0.80;;;26.70;48.30;;;;;;4935984;29;20035;-69
2023/10/08 12:26:46;;;;;;;2.80;1.20;;;26.60;48.60;;;;;;4934901;29;20072;-69
2023/10/08 12:29:19;;;;;;;1.58;0.82;;;26.60;48.90;;;;;;4935031;29;20566;-71
2023/10/08 12:31:48;;;;;;;4.07;1.23;;;26.60;49.20;;;;;;4934796;29;20143;-71
2023/10/08 12:34:15;;;;;;;1.33;0.82;;;26.60;49.40;;;;;;4934288;29;20040;-69
2023/10/08 12:36:42;;;;;;;2.28;0.90;;;26.60;49.10;;;;;;4934677;29;20043;-70
2023/10/08 12:39:14;;;;;;;2.15;0.98;;;26.50;48.70;;;;;;4933236;29;20064;-70
2023/10/08 12:41:44;;;;;;;1.52;0.70;;;26.50;48.40;;;;;;4933656;29;20086;-72
2023/10/08 12:44:11;;;;;;;2.38;0.80;;;26.50;48.30;;;;;;4933364;29;20031;-72
2023/10/08 12:46:37;;;;;;;2.40;0.80;;;26.50;48.10;;;;;;4933452;29;20131;-71
2023/10/08 12:49:04;;;;;;;1.38;0.93;;;26.60;48.00;;;;;;4934466;29;20031;-72
2023/10/08 12:51:33;;;;;;;3.70;0.90;;;26.60;47.90;;;;;;4934315;29;20098;-69
2023/10/08 12:56:39;;;;;;;1.77;1.08;;;26.60;47.90;;;;;;4916500;29;20059;-72
2023/10/08 12:59:08;;;;;;;1.25;1.00;;;26.60;47.80;;;;;;4933152;29;20135;-72
2023/10/08 13:01:41;;;;;;;2.70;1.08;;;26.50;47.70;;;;;;4933441;29;20115;-71
2023/10/08 13:04:07;;;;;;;2.30;0.95;;;26.50;47.60;;;;;;4927596;29;20054;-73
2023/10/08 13:06:37;;;;;;;1.15;0.90;;;26.50;47.50;;;;;;4915366;29;20055;-73
2023/10/08 13:09:09;;;;;;;1.42;1.05;;;26.40;47.60;;;;;;4916299;29;20460;-71
2023/10/08 13:11:38;;;;;;;0.60;0.60;;;26.60;47.60;;;;;;4931612;29;20040;-74
2023/10/08 13:14:05;;;;;;;0.80;0.80;;;26.40;47.60;;;;;;4931824;29;20528;-72
2023/10/08 13:16:31;;;;;;;1.67;0.93;;;26.40;47.60;;;;;;4930813;29;20138;-72
2023/10/08 13:18:58;;;;;;;0.90;0.90;;;26.40;47.60;;;;;;4931268;29;20460;-72
2023/10/08 13:21:25;;;;;;;2.03;0.77;;;26.40;47.60;;;;;;4931406;29;20035;-72
2023/10/08 13:23:52;;;;;;;2.17;1.45;;;26.50;47.70;;;;;;4931323;29;20203;-73
2023/10/08 13:26:22;;;;;;;1.20;0.80;;;26.40;47.70;;;;;;4931511;29;20115;-73
2023/10/08 13:28:48;;;;;;;1.40;1.30;;;26.50;47.80;;;;;;4931348;29;20067;-73
2023/10/08 13:31:16;;;;;;;1.73;1.20;;;26.40;47.80;;;;;;4931080;29;20088;-73
2023/10/08 13:33:44;;;;;;;1.73;1.35;;;26.40;47.80;;;;;;4936705;29;20054;-74
2023/10/08 13:36:13;;;;;;;1.60;1.17;;;26.40;47.80;;;;;;4934242;29;20042;-74
2023/10/08 13:38:43;;;;;;;9.40;2.10;;;26.40;47.90;;;;;;4933932;29;20123;-74
2023/10/08 13:41:15;;;;;;;2.55;1.90;;;26.40;47.90;;;;;;4932221;29;20378;-73
2023/10/08 13:43:45;;;;;;;2.80;1.57;;;26.40;47.90;;;;;;4934167;29;20039;-74
2023/10/08 13:46:17;;;;;;;1.63;1.25;;;26.10;47.90;;;;;;4933469;29;20031;-71
2023/10/08 13:48:50;;;;;;;2.63;1.35;;;26.50;47.90;;;;;;4932887;29;20039;-74
2023/10/08 13:51:28;;;;;;;1.55;1.42;;;26.40;48.00;;;;;;4928681;29;20400;-75
2023/10/08 13:54:06;;;;;;;2.80;1.10;;;26.40;47.90;;;;;;4931352;29;20040;-72
2023/10/08 13:56:33;;;;;;;1.02;0.93;;;26.50;48.30;;;;;;4928090;29;20132;-72
2023/10/08 13:59:11;;;;;;;1.55;0.80;;;26.50;49.00;;;;;;4927207;29;20044;-73
2023/10/08 14:01:40;;;;;;;2.28;0.70;;;26.50;48.90;;;;;;4933075;29;20036;-72
2023/10/08 14:04:07;;;;;;;3.08;0.90;;;26.60;48.30;;;;;;4938658;29;20220;-73
2023/10/08 14:06:40;;;;;;;1.65;1.08;;;26.70;48.10;;;;;;4916824;29;20037;-76
2023/10/08 14:09:11;;;;;;;1.00;0.90;;;27.00;48.50;;;;;;4932486;29;20036;-74
2023/10/08 14:11:38;;;;;;;1.63;1.15;;;26.90;47.70;;;;;;4933685;29;20701;-72
2023/10/08 14:14:07;;;;;;;1.50;1.10;;;26.90;47.30;;;;;;4933111;29;20496;-73
2023/10/08 14:16:43;;;;;;;1.45;1.27;;;26.80;48.10;;;;;;4933643;29;20131;-72
2023/10/08 14:19:13;;;;;;;1.05;0.95;;;26.90;47.60;;;;;;4932376;29;20092;-72
2023/10/08 14:22:04;;;;;;;4.20;1.10;;;26.90;47.10;;;;;;4930485;29;20047;-71
2023/10/08 14:24:32;;;;;;;3.30;1.40;;;26.90;47.20;;;;;;4930239;29;20385;-70